sensor_id;sensor_type;location;lat;lon;timestamp;P1;durP1;ratioP1;P2;durP2;ratioP2
40871;SDS011;26591;43.264;26.940;2023-08-31T00:00:12;8.60;;;6.63;;
40871;SDS011;26591;43.264;26.940;2023-08-31T00:02:39;9.80;;;7.45;;
40871;SDS011;26591;43.264;26.940;2023-08-31T00:05:05;11.40;;;6.93;;
40871;SDS011;26591;43.264;26.940;2023-08-31T00:07:31;10.38;;;6.93;;
40871;SDS011;26591;43.264;26.940;2023-08-31T00:09:57;9.07;;;6.93;;
40871;SDS011;26591;43.264;26.940;2023-08-31T00:12:23;11.45;;;7.57;;
40871;SDS011;26591;43.264;26.940;2023-08-31T00:14:49;9.10;;;7.35;;
40871;SDS011;26591;43.264;26.940;2023-08-31T00:17:15;9.20;;;7.05;;
40871;SDS011;26591;43.264;26.940;2023-08-31T00:19:41;10.80;;;7.45;;
40871;SDS011;26591;43.264;26.940;2023-08-31T00:22:06;10.43;;;7.75;;
40871;SDS011;26591;43.264;26.940;2023-08-31T00:24:32;11.45;;;8.35;;
40871;SDS011;26591;43.264;26.940;2023-08-31T00:27:00;11.48;;;8.40;;
40871;SDS011;26591;43.264;26.940;2023-08-31T00:29:26;9.60;;;7.40;;
40871;SDS011;26591;43.264;26.940;2023-08-31T00:31:52;10.77;;;8.00;;
40871;SDS011;26591;43.264;26.940;2023-08-31T00:34:18;12.25;;;8.23;;
40871;SDS011;26591;43.264;26.940;2023-08-31T00:36:44;9.93;;;8.40;;
40871;SDS011;26591;43.264;26.940;2023-08-31T00:39:10;15.90;;;9.63;;
40871;SDS011;26591;43.264;26.940;2023-08-31T00:41:35;12.07;;;8.80;;
40871;SDS011;26591;43.264;26.940;2023-08-31T00:44:01;10.77;;;8.50;;
40871;SDS011;26591;43.264;26.940;2023-08-31T00:46:29;11.45;;;7.95;;
40871;SDS011;26591;43.264;26.940;2023-08-31T00:48:56;6.88;;;6.07;;
40871;SDS011;26591;43.264;26.940;2023-08-31T00:51:23;6.28;;;5.30;;
40871;SDS011;26591;43.264;26.940;2023-08-31T00:53:49;6.68;;;5.75;;
40871;SDS011;26591;43.264;26.940;2023-08-31T00:56:18;9.18;;;6.00;;
40871;SDS011;26591;43.264;26.940;2023-08-31T00:58:44;8.13;;;6.40;;
40871;SDS011;26591;43.264;26.940;2023-08-31T01:09:57;12.77;;;7.00;;
40871;SDS011;26591;43.264;26.940;2023-08-31T01:15:29;7.20;;;6.40;;
40871;SDS011;26591;43.264;26.940;2023-08-31T01:17:57;9.05;;;7.00;;
40871;SDS011;26591;43.264;26.940;2023-08-31T01:20:30;7.13;;;6.40;;
40871;SDS011;26591;43.264;26.940;2023-08-31T01:23:02;10.60;;;7.22;;
40871;SDS011;26591;43.264;26.940;2023-08-31T01:25:32;8.98;;;6.97;;
40871;SDS011;26591;43.264;26.940;2023-08-31T01:27:59;10.38;;;8.60;;
40871;SDS011;26591;43.264;26.940;2023-08-31T01:30:29;10.98;;;7.80;;
40871;SDS011;26591;43.264;26.940;2023-08-31T01:32:56;10.40;;;7.57;;
40871;SDS011;26591;43.264;26.940;2023-08-31T01:35:21;12.57;;;8.27;;
40871;SDS011;26591;43.264;26.940;2023-08-31T01:37:47;8.93;;;7.60;;
40871;SDS011;26591;43.264;26.940;2023-08-31T01:40:22;8.05;;;7.18;;
40871;SDS011;26591;43.264;26.940;2023-08-31T01:42:53;8.23;;;6.90;;
40871;SDS011;26591;43.264;26.940;2023-08-31T01:45:20;9.27;;;7.45;;
40871;SDS011;26591;43.264;26.940;2023-08-31T01:47:48;7.50;;;6.68;;
40871;SDS011;26591;43.264;26.940;2023-08-31T01:50:14;7.13;;;6.53;;
40871;SDS011;26591;43.264;26.940;2023-08-31T01:52:39;12.75;;;7.55;;
40871;SDS011;26591;43.264;26.940;2023-08-31T01:55:07;10.23;;;6.93;;
40871;SDS011;26591;43.264;26.940;2023-08-31T01:57:33;10.65;;;6.95;;
40871;SDS011;26591;43.264;26.940;2023-08-31T01:59:59;7.63;;;6.30;;
40871;SDS011;26591;43.264;26.940;2023-08-31T02:02:25;9.98;;;6.13;;
40871;SDS011;26591;43.264;26.940;2023-08-31T02:04:50;8.70;;;6.63;;
40871;SDS011;26591;43.264;26.940;2023-08-31T02:07:16;11.35;;;6.30;;
40871;SDS011;26591;43.264;26.940;2023-08-31T02:09:42;10.50;;;6.45;;
40871;SDS011;26591;43.264;26.940;2023-08-31T02:12:07;7.93;;;6.95;;
40871;SDS011;26591;43.264;26.940;2023-08-31T02:14:34;8.77;;;6.82;;
40871;SDS011;26591;43.264;26.940;2023-08-31T02:17:00;11.43;;;7.13;;
40871;SDS011;26591;43.264;26.940;2023-08-31T02:19:26;7.85;;;6.32;;
40871;SDS011;26591;43.264;26.940;2023-08-31T02:21:54;8.50;;;6.60;;
40871;SDS011;26591;43.264;26.940;2023-08-31T02:24:19;10.63;;;7.88;;
40871;SDS011;26591;43.264;26.940;2023-08-31T02:26:45;7.90;;;6.82;;
40871;SDS011;26591;43.264;26.940;2023-08-31T02:29:11;8.57;;;7.30;;
40871;SDS011;26591;43.264;26.940;2023-08-31T02:31:36;9.25;;;8.02;;
40871;SDS011;26591;43.264;26.940;2023-08-31T02:34:03;10.10;;;8.48;;
40871;SDS011;26591;43.264;26.940;2023-08-31T02:36:29;10.93;;;8.70;;
40871;SDS011;26591;43.264;26.940;2023-08-31T02:38:55;12.77;;;9.30;;
40871;SDS011;26591;43.264;26.940;2023-08-31T02:41:21;12.00;;;9.57;;
40871;SDS011;26591;43.264;26.940;2023-08-31T02:43:47;12.50;;;9.15;;
40871;SDS011;26591;43.264;26.940;2023-08-31T02:46:15;15.68;;;9.93;;
40871;SDS011;26591;43.264;26.940;2023-08-31T02:48:41;12.38;;;9.30;;
40871;SDS011;26591;43.264;26.940;2023-08-31T02:51:06;10.75;;;8.30;;
40871;SDS011;26591;43.264;26.940;2023-08-31T02:53:32;10.02;;;8.68;;
40871;SDS011;26591;43.264;26.940;2023-08-31T02:55:57;9.90;;;8.82;;
40871;SDS011;26591;43.264;26.940;2023-08-31T02:58:23;12.48;;;9.70;;
40871;SDS011;26591;43.264;26.940;2023-08-31T03:00:51;13.07;;;9.48;;
40871;SDS011;26591;43.264;26.940;2023-08-31T03:03:18;10.38;;;9.07;;
40871;SDS011;26591;43.264;26.940;2023-08-31T03:05:44;11.77;;;10.32;;
40871;SDS011;26591;43.264;26.940;2023-08-31T03:08:10;12.27;;;10.23;;
40871;SDS011;26591;43.264;26.940;2023-08-31T03:10:36;17.08;;;10.23;;
40871;SDS011;26591;43.264;26.940;2023-08-31T03:13:02;12.00;;;9.60;;
40871;SDS011;26591;43.264;26.940;2023-08-31T03:15:34;13.30;;;10.15;;
40871;SDS011;26591;43.264;26.940;2023-08-31T03:17:59;12.93;;;9.48;;
40871;SDS011;26591;43.264;26.940;2023-08-31T03:20:25;10.20;;;8.32;;
40871;SDS011;26591;43.264;26.940;2023-08-31T03:22:50;10.85;;;9.00;;
40871;SDS011;26591;43.264;26.940;2023-08-31T03:25:16;12.45;;;9.30;;
40871;SDS011;26591;43.264;26.940;2023-08-31T03:27:42;14.52;;;10.60;;
40871;SDS011;26591;43.264;26.940;2023-08-31T03:30:08;10.75;;;9.25;;
40871;SDS011;26591;43.264;26.940;2023-08-31T03:32:33;12.73;;;8.85;;
40871;SDS011;26591;43.264;26.940;2023-08-31T03:34:59;13.63;;;9.02;;
40871;SDS011;26591;43.264;26.940;2023-08-31T03:37:28;25.90;;;10.50;;
40871;SDS011;26591;43.264;26.940;2023-08-31T03:39:53;12.25;;;9.80;;
40871;SDS011;26591;43.264;26.940;2023-08-31T03:42:19;13.95;;;9.18;;
40871;SDS011;26591;43.264;26.940;2023-08-31T03:44:44;11.45;;;9.20;;
40871;SDS011;26591;43.264;26.940;2023-08-31T03:47:10;13.48;;;9.90;;
40871;SDS011;26591;43.264;26.940;2023-08-31T03:49:35;14.05;;;9.88;;
40871;SDS011;26591;43.264;26.940;2023-08-31T03:52:01;11.18;;;9.68;;
40871;SDS011;26591;43.264;26.940;2023-08-31T03:54:29;11.57;;;8.77;;
40871;SDS011;26591;43.264;26.940;2023-08-31T03:56:54;11.00;;;9.20;;
40871;SDS011;26591;43.264;26.940;2023-08-31T03:59:20;14.13;;;9.82;;
40871;SDS011;26591;43.264;26.940;2023-08-31T04:01:45;12.20;;;8.65;;
40871;SDS011;26591;43.264;26.940;2023-08-31T04:04:11;12.75;;;8.65;;
40871;SDS011;26591;43.264;26.940;2023-08-31T04:06:37;13.32;;;9.50;;
40871;SDS011;26591;43.264;26.940;2023-08-31T04:09:02;13.43;;;9.70;;
40871;SDS011;26591;43.264;26.940;2023-08-31T04:11:29;11.18;;;9.00;;
40871;SDS011;26591;43.264;26.940;2023-08-31T04:13:54;11.55;;;9.20;;
40871;SDS011;26591;43.264;26.940;2023-08-31T04:16:20;15.25;;;9.43;;
40871;SDS011;26591;43.264;26.940;2023-08-31T04:18:46;11.18;;;8.65;;
40871;SDS011;26591;43.264;26.940;2023-08-31T04:21:16;15.10;;;9.15;;
40871;SDS011;26591;43.264;26.940;2023-08-31T04:23:42;13.63;;;8.85;;
40871;SDS011;26591;43.264;26.940;2023-08-31T04:26:14;15.82;;;8.90;;
40871;SDS011;26591;43.264;26.940;2023-08-31T04:28:40;11.60;;;8.25;;
40871;SDS011;26591;43.264;26.940;2023-08-31T04:31:07;11.25;;;8.90;;
40871;SDS011;26591;43.264;26.940;2023-08-31T04:33:33;10.93;;;8.18;;
40871;SDS011;26591;43.264;26.940;2023-08-31T04:35:59;11.82;;;8.13;;
40871;SDS011;26591;43.264;26.940;2023-08-31T04:38:25;10.63;;;8.20;;
40871;SDS011;26591;43.264;26.940;2023-08-31T04:40:50;11.38;;;8.45;;
40871;SDS011;26591;43.264;26.940;2023-08-31T04:43:16;10.73;;;8.48;;
40871;SDS011;26591;43.264;26.940;2023-08-31T04:45:42;11.75;;;9.65;;
40871;SDS011;26591;43.264;26.940;2023-08-31T04:48:07;10.98;;;7.45;;
40871;SDS011;26591;43.264;26.940;2023-08-31T04:50:33;14.45;;;9.27;;
40871;SDS011;26591;43.264;26.940;2023-08-31T04:52:59;12.27;;;7.95;;
40871;SDS011;26591;43.264;26.940;2023-08-31T04:55:24;12.55;;;8.43;;
40871;SDS011;26591;43.264;26.940;2023-08-31T04:57:50;10.25;;;8.60;;
40871;SDS011;26591;43.264;26.940;2023-08-31T05:00:16;12.38;;;8.77;;
40871;SDS011;26591;43.264;26.940;2023-08-31T05:02:42;10.77;;;8.80;;
40871;SDS011;26591;43.264;26.940;2023-08-31T05:05:08;13.13;;;9.00;;
40871;SDS011;26591;43.264;26.940;2023-08-31T05:07:34;16.38;;;9.82;;
40871;SDS011;26591;43.264;26.940;2023-08-31T05:09:59;11.65;;;9.98;;
40871;SDS011;26591;43.264;26.940;2023-08-31T05:12:27;12.23;;;8.45;;
40871;SDS011;26591;43.264;26.940;2023-08-31T05:14:52;13.10;;;8.98;;
40871;SDS011;26591;43.264;26.940;2023-08-31T05:17:17;9.57;;;8.45;;
40871;SDS011;26591;43.264;26.940;2023-08-31T05:19:43;12.75;;;8.30;;
40871;SDS011;26591;43.264;26.940;2023-08-31T05:22:08;10.18;;;8.43;;
40871;SDS011;26591;43.264;26.940;2023-08-31T05:24:34;13.40;;;8.80;;
40871;SDS011;26591;43.264;26.940;2023-08-31T05:26:59;12.45;;;9.23;;
40871;SDS011;26591;43.264;26.940;2023-08-31T05:29:25;15.75;;;10.57;;
40871;SDS011;26591;43.264;26.940;2023-08-31T05:31:51;11.05;;;9.77;;
40871;SDS011;26591;43.264;26.940;2023-08-31T05:34:20;13.98;;;9.38;;
40871;SDS011;26591;43.264;26.940;2023-08-31T05:36:47;12.93;;;9.48;;
40871;SDS011;26591;43.264;26.940;2023-08-31T05:39:12;17.77;;;10.63;;
40871;SDS011;26591;43.264;26.940;2023-08-31T05:41:41;10.27;;;9.02;;
40871;SDS011;26591;43.264;26.940;2023-08-31T05:44:07;12.45;;;8.95;;
40871;SDS011;26591;43.264;26.940;2023-08-31T05:46:33;9.75;;;8.75;;
40871;SDS011;26591;43.264;26.940;2023-08-31T05:48:59;10.05;;;7.88;;
40871;SDS011;26591;43.264;26.940;2023-08-31T05:51:24;12.20;;;8.48;;
40871;SDS011;26591;43.264;26.940;2023-08-31T05:53:50;11.75;;;8.90;;
40871;SDS011;26591;43.264;26.940;2023-08-31T05:56:15;8.75;;;7.75;;
40871;SDS011;26591;43.264;26.940;2023-08-31T05:58:41;12.52;;;8.18;;
40871;SDS011;26591;43.264;26.940;2023-08-31T06:01:06;10.18;;;8.77;;
40871;SDS011;26591;43.264;26.940;2023-08-31T06:03:32;15.95;;;8.77;;
40871;SDS011;26591;43.264;26.940;2023-08-31T06:05:58;13.65;;;9.10;;
40871;SDS011;26591;43.264;26.940;2023-08-31T06:08:24;18.10;;;8.68;;
40871;SDS011;26591;43.264;26.940;2023-08-31T06:10:50;18.45;;;8.77;;
40871;SDS011;26591;43.264;26.940;2023-08-31T06:13:16;10.27;;;8.25;;
40871;SDS011;26591;43.264;26.940;2023-08-31T06:15:42;12.68;;;8.38;;
40871;SDS011;26591;43.264;26.940;2023-08-31T06:18:09;11.30;;;8.48;;
40871;SDS011;26591;43.264;26.940;2023-08-31T06:20:35;10.25;;;7.82;;
40871;SDS011;26591;43.264;26.940;2023-08-31T06:23:00;10.98;;;8.13;;
40871;SDS011;26591;43.264;26.940;2023-08-31T06:25:27;10.23;;;8.38;;
40871;SDS011;26591;43.264;26.940;2023-08-31T06:27:53;10.57;;;8.45;;
40871;SDS011;26591;43.264;26.940;2023-08-31T06:30:18;9.52;;;7.43;;
40871;SDS011;26591;43.264;26.940;2023-08-31T06:32:44;16.17;;;8.88;;
40871;SDS011;26591;43.264;26.940;2023-08-31T06:35:11;9.07;;;7.68;;
40871;SDS011;26591;43.264;26.940;2023-08-31T06:37:38;10.85;;;8.07;;
40871;SDS011;26591;43.264;26.940;2023-08-31T06:40:05;10.10;;;7.30;;
40871;SDS011;26591;43.264;26.940;2023-08-31T06:42:31;10.18;;;6.03;;
40871;SDS011;26591;43.264;26.940;2023-08-31T06:44:56;11.68;;;7.22;;
40871;SDS011;26591;43.264;26.940;2023-08-31T06:47:22;11.05;;;4.80;;
40871;SDS011;26591;43.264;26.940;2023-08-31T06:49:48;5.57;;;4.60;;
40871;SDS011;26591;43.264;26.940;2023-08-31T06:52:13;6.43;;;4.80;;
40871;SDS011;26591;43.264;26.940;2023-08-31T06:54:39;7.43;;;4.53;;
40871;SDS011;26591;43.264;26.940;2023-08-31T06:57:04;9.15;;;5.03;;
40871;SDS011;26591;43.264;26.940;2023-08-31T06:59:29;10.57;;;5.68;;
40871;SDS011;26591;43.264;26.940;2023-08-31T07:01:55;6.58;;;4.97;;
40871;SDS011;26591;43.264;26.940;2023-08-31T07:04:21;5.20;;;4.57;;
40871;SDS011;26591;43.264;26.940;2023-08-31T07:06:46;7.72;;;5.32;;
40871;SDS011;26591;43.264;26.940;2023-08-31T07:09:12;7.35;;;5.30;;
40871;SDS011;26591;43.264;26.940;2023-08-31T07:11:37;5.82;;;4.63;;
40871;SDS011;26591;43.264;26.940;2023-08-31T07:14:03;7.25;;;4.88;;
40871;SDS011;26591;43.264;26.940;2023-08-31T07:16:28;6.60;;;5.30;;
40871;SDS011;26591;43.264;26.940;2023-08-31T07:18:54;12.05;;;5.40;;
40871;SDS011;26591;43.264;26.940;2023-08-31T07:21:19;8.32;;;5.40;;
40871;SDS011;26591;43.264;26.940;2023-08-31T07:23:45;10.85;;;5.75;;
40871;SDS011;26591;43.264;26.940;2023-08-31T07:26:10;6.78;;;5.22;;
40871;SDS011;26591;43.264;26.940;2023-08-31T07:28:35;9.55;;;5.40;;
40871;SDS011;26591;43.264;26.940;2023-08-31T07:31:02;5.38;;;4.88;;
40871;SDS011;26591;43.264;26.940;2023-08-31T07:33:31;9.45;;;5.32;;
40871;SDS011;26591;43.264;26.940;2023-08-31T07:35:58;7.82;;;5.57;;
40871;SDS011;26591;43.264;26.940;2023-08-31T07:38:24;10.55;;;5.70;;
40871;SDS011;26591;43.264;26.940;2023-08-31T07:40:51;5.80;;;4.90;;
40871;SDS011;26591;43.264;26.940;2023-08-31T07:43:17;7.10;;;5.20;;
40871;SDS011;26591;43.264;26.940;2023-08-31T07:45:42;10.65;;;5.55;;
40871;SDS011;26591;43.264;26.940;2023-08-31T07:48:08;7.00;;;4.85;;
40871;SDS011;26591;43.264;26.940;2023-08-31T07:50:34;6.13;;;5.20;;
40871;SDS011;26591;43.264;26.940;2023-08-31T07:52:59;5.50;;;4.50;;
40871;SDS011;26591;43.264;26.940;2023-08-31T07:55:25;6.47;;;5.05;;
40871;SDS011;26591;43.264;26.940;2023-08-31T07:57:50;7.35;;;4.75;;
40871;SDS011;26591;43.264;26.940;2023-08-31T08:00:16;5.90;;;4.82;;
40871;SDS011;26591;43.264;26.940;2023-08-31T08:02:42;6.07;;;5.07;;
40871;SDS011;26591;43.264;26.940;2023-08-31T08:05:08;7.60;;;4.30;;
40871;SDS011;26591;43.264;26.940;2023-08-31T08:07:34;7.10;;;4.65;;
40871;SDS011;26591;43.264;26.940;2023-08-31T08:09:59;6.10;;;4.28;;
40871;SDS011;26591;43.264;26.940;2023-08-31T08:12:25;6.00;;;4.53;;
40871;SDS011;26591;43.264;26.940;2023-08-31T08:14:51;6.18;;;4.10;;
40871;SDS011;26591;43.264;26.940;2023-08-31T08:17:16;6.90;;;4.10;;
40871;SDS011;26591;43.264;26.940;2023-08-31T08:19:42;5.28;;;4.63;;
40871;SDS011;26591;43.264;26.940;2023-08-31T08:22:07;5.60;;;4.38;;
40871;SDS011;26591;43.264;26.940;2023-08-31T08:24:33;7.22;;;4.32;;
40871;SDS011;26591;43.264;26.940;2023-08-31T08:27:04;6.10;;;4.90;;
40871;SDS011;26591;43.264;26.940;2023-08-31T08:29:30;6.45;;;4.65;;
40871;SDS011;26591;43.264;26.940;2023-08-31T08:31:55;5.72;;;4.95;;
40871;SDS011;26591;43.264;26.940;2023-08-31T08:34:21;9.07;;;5.03;;
40871;SDS011;26591;43.264;26.940;2023-08-31T08:36:46;7.60;;;5.38;;
40871;SDS011;26591;43.264;26.940;2023-08-31T08:39:11;8.43;;;5.53;;
40871;SDS011;26591;43.264;26.940;2023-08-31T08:41:37;8.73;;;5.40;;
40871;SDS011;26591;43.264;26.940;2023-08-31T08:44:04;7.63;;;6.00;;
40871;SDS011;26591;43.264;26.940;2023-08-31T08:46:33;6.32;;;5.72;;
40871;SDS011;26591;43.264;26.940;2023-08-31T08:48:59;8.70;;;5.85;;
40871;SDS011;26591;43.264;26.940;2023-08-31T08:51:27;6.30;;;5.63;;
40871;SDS011;26591;43.264;26.940;2023-08-31T08:53:53;6.32;;;5.68;;
40871;SDS011;26591;43.264;26.940;2023-08-31T08:56:19;8.07;;;6.15;;
40871;SDS011;26591;43.264;26.940;2023-08-31T08:58:45;8.65;;;6.43;;
40871;SDS011;26591;43.264;26.940;2023-08-31T09:01:10;7.85;;;6.18;;
40871;SDS011;26591;43.264;26.940;2023-08-31T09:03:36;8.13;;;6.47;;
40871;SDS011;26591;43.264;26.940;2023-08-31T09:06:02;8.02;;;6.05;;
40871;SDS011;26591;43.264;26.940;2023-08-31T09:08:29;7.45;;;6.65;;
40871;SDS011;26591;43.264;26.940;2023-08-31T09:10:55;8.32;;;6.18;;
40871;SDS011;26591;43.264;26.940;2023-08-31T09:13:28;9.15;;;6.88;;
40871;SDS011;26591;43.264;26.940;2023-08-31T09:15:55;8.80;;;6.53;;
40871;SDS011;26591;43.264;26.940;2023-08-31T09:18:26;8.32;;;5.65;;
40871;SDS011;26591;43.264;26.940;2023-08-31T09:20:53;8.38;;;5.97;;
40871;SDS011;26591;43.264;26.940;2023-08-31T09:23:19;6.60;;;5.90;;
40871;SDS011;26591;43.264;26.940;2023-08-31T09:25:46;8.68;;;6.03;;
40871;SDS011;26591;43.264;26.940;2023-08-31T09:28:16;6.88;;;5.50;;
40871;SDS011;26591;43.264;26.940;2023-08-31T09:30:45;7.28;;;6.43;;
40871;SDS011;26591;43.264;26.940;2023-08-31T09:33:13;10.00;;;6.13;;
40871;SDS011;26591;43.264;26.940;2023-08-31T09:36:01;8.48;;;6.13;;
40871;SDS011;26591;43.264;26.940;2023-08-31T09:38:26;6.18;;;5.55;;
40871;SDS011;26591;43.264;26.940;2023-08-31T09:40:52;6.05;;;5.45;;
40871;SDS011;26591;43.264;26.940;2023-08-31T09:43:29;6.68;;;5.65;;
40871;SDS011;26591;43.264;26.940;2023-08-31T09:45:54;9.13;;;6.38;;
40871;SDS011;26591;43.264;26.940;2023-08-31T09:48:20;6.88;;;6.13;;
40871;SDS011;26591;43.264;26.940;2023-08-31T09:50:48;6.30;;;5.68;;
40871;SDS011;26591;43.264;26.940;2023-08-31T09:53:16;8.93;;;6.47;;
40871;SDS011;26591;43.264;26.940;2023-08-31T09:55:44;10.15;;;6.53;;
40871;SDS011;26591;43.264;26.940;2023-08-31T09:58:16;9.25;;;6.00;;
40871;SDS011;26591;43.264;26.940;2023-08-31T10:00:46;7.60;;;5.95;;
40871;SDS011;26591;43.264;26.940;2023-08-31T10:03:13;9.85;;;6.40;;
40871;SDS011;26591;43.264;26.940;2023-08-31T10:05:41;7.50;;;6.28;;
40871;SDS011;26591;43.264;26.940;2023-08-31T10:08:08;7.97;;;5.63;;
40871;SDS011;26591;43.264;26.940;2023-08-31T10:10:34;7.88;;;5.95;;
40871;SDS011;26591;43.264;26.940;2023-08-31T10:13:00;7.57;;;5.30;;
40871;SDS011;26591;43.264;26.940;2023-08-31T10:15:34;10.48;;;5.35;;
40871;SDS011;26591;43.264;26.940;2023-08-31T10:18:01;6.25;;;5.50;;
40871;SDS011;26591;43.264;26.940;2023-08-31T10:20:28;6.72;;;4.97;;
40871;SDS011;26591;43.264;26.940;2023-08-31T10:22:57;5.90;;;5.30;;
40871;SDS011;26591;43.264;26.940;2023-08-31T10:25:23;5.70;;;4.93;;
40871;SDS011;26591;43.264;26.940;2023-08-31T10:27:49;7.13;;;5.22;;
40871;SDS011;26591;43.264;26.940;2023-08-31T10:35:54;8.00;;;5.30;;
40871;SDS011;26591;43.264;26.940;2023-08-31T10:38:25;9.10;;;5.20;;
40871;SDS011;26591;43.264;26.940;2023-08-31T10:41:00;8.30;;;5.55;;
40871;SDS011;26591;43.264;26.940;2023-08-31T10:46:25;5.85;;;5.22;;
40871;SDS011;26591;43.264;26.940;2023-08-31T10:51:32;6.65;;;5.22;;
40871;SDS011;26591;43.264;26.940;2023-08-31T11:05:13;5.63;;;4.60;;
40871;SDS011;26591;43.264;26.940;2023-08-31T11:07:40;7.03;;;4.93;;
40871;SDS011;26591;43.264;26.940;2023-08-31T11:10:09;5.43;;;4.10;;
40871;SDS011;26591;43.264;26.940;2023-08-31T11:12:41;7.35;;;4.55;;
40871;SDS011;26591;43.264;26.940;2023-08-31T11:15:12;8.05;;;5.25;;
40871;SDS011;26591;43.264;26.940;2023-08-31T11:17:39;4.88;;;4.38;;
40871;SDS011;26591;43.264;26.940;2023-08-31T11:22:35;5.53;;;4.55;;
40871;SDS011;26591;43.264;26.940;2023-08-31T11:25:05;6.55;;;5.00;;
40871;SDS011;26591;43.264;26.940;2023-08-31T11:27:31;8.38;;;4.70;;
40871;SDS011;26591;43.264;26.940;2023-08-31T11:29:56;7.35;;;4.80;;
40871;SDS011;26591;43.264;26.940;2023-08-31T11:32:25;6.38;;;4.47;;
40871;SDS011;26591;43.264;26.940;2023-08-31T11:34:50;5.50;;;4.53;;
40871;SDS011;26591;43.264;26.940;2023-08-31T11:37:16;8.45;;;5.40;;
40871;SDS011;26591;43.264;26.940;2023-08-31T11:39:52;6.82;;;5.32;;
40871;SDS011;26591;43.264;26.940;2023-08-31T11:42:19;5.97;;;5.07;;
40871;SDS011;26591;43.264;26.940;2023-08-31T11:44:49;7.47;;;4.43;;
40871;SDS011;26591;43.264;26.940;2023-08-31T11:47:16;6.63;;;4.95;;
40871;SDS011;26591;43.264;26.940;2023-08-31T11:49:42;7.35;;;4.57;;
40871;SDS011;26591;43.264;26.940;2023-08-31T11:52:12;6.90;;;4.78;;
40871;SDS011;26591;43.264;26.940;2023-08-31T11:57:07;8.43;;;4.72;;
40871;SDS011;26591;43.264;26.940;2023-08-31T11:59:36;7.78;;;4.80;;
40871;SDS011;26591;43.264;26.940;2023-08-31T12:02:06;5.80;;;4.63;;
40871;SDS011;26591;43.264;26.940;2023-08-31T12:04:43;8.95;;;5.00;;
40871;SDS011;26591;43.264;26.940;2023-08-31T12:07:10;6.53;;;4.45;;
40871;SDS011;26591;43.264;26.940;2023-08-31T12:09:36;6.13;;;4.75;;
40871;SDS011;26591;43.264;26.940;2023-08-31T12:12:02;5.00;;;4.38;;
40871;SDS011;26591;43.264;26.940;2023-08-31T12:14:29;4.85;;;4.28;;
40871;SDS011;26591;43.264;26.940;2023-08-31T12:17:03;5.55;;;4.28;;
40871;SDS011;26591;43.264;26.940;2023-08-31T12:19:32;4.80;;;3.97;;
40871;SDS011;26591;43.264;26.940;2023-08-31T12:22:01;9.37;;;4.20;;
40871;SDS011;26591;43.264;26.940;2023-08-31T12:24:26;7.82;;;4.30;;
40871;SDS011;26591;43.264;26.940;2023-08-31T12:26:52;8.07;;;4.40;;
40871;SDS011;26591;43.264;26.940;2023-08-31T12:29:23;4.82;;;4.10;;
40871;SDS011;26591;43.264;26.940;2023-08-31T12:31:49;5.93;;;4.53;;
40871;SDS011;26591;43.264;26.940;2023-08-31T12:34:15;4.53;;;3.78;;
40871;SDS011;26591;43.264;26.940;2023-08-31T12:36:41;7.00;;;4.45;;
40871;SDS011;26591;43.264;26.940;2023-08-31T12:39:07;6.25;;;4.68;;
40871;SDS011;26591;43.264;26.940;2023-08-31T12:41:37;5.20;;;4.43;;
40871;SDS011;26591;43.264;26.940;2023-08-31T12:44:03;5.32;;;4.20;;
40871;SDS011;26591;43.264;26.940;2023-08-31T12:46:30;6.28;;;4.60;;
40871;SDS011;26591;43.264;26.940;2023-08-31T12:48:56;5.20;;;4.32;;
40871;SDS011;26591;43.264;26.940;2023-08-31T12:51:21;8.07;;;4.40;;
40871;SDS011;26591;43.264;26.940;2023-08-31T12:53:47;6.80;;;5.05;;
40871;SDS011;26591;43.264;26.940;2023-08-31T12:56:13;9.35;;;4.78;;
40871;SDS011;26591;43.264;26.940;2023-08-31T12:58:46;7.47;;;4.57;;
40871;SDS011;26591;43.264;26.940;2023-08-31T13:01:13;9.18;;;4.70;;
40871;SDS011;26591;43.264;26.940;2023-08-31T13:03:38;7.15;;;4.28;;
40871;SDS011;26591;43.264;26.940;2023-08-31T13:06:04;7.47;;;4.55;;
40871;SDS011;26591;43.264;26.940;2023-08-31T13:08:29;5.80;;;3.88;;
40871;SDS011;26591;43.264;26.940;2023-08-31T13:10:55;7.40;;;4.00;;
40871;SDS011;26591;43.264;26.940;2023-08-31T13:13:21;5.57;;;3.97;;
40871;SDS011;26591;43.264;26.940;2023-08-31T13:15:47;6.38;;;3.75;;
40871;SDS011;26591;43.264;26.940;2023-08-31T13:18:13;5.28;;;3.78;;
40871;SDS011;26591;43.264;26.940;2023-08-31T13:20:38;7.25;;;3.88;;
40871;SDS011;26591;43.264;26.940;2023-08-31T13:23:22;7.70;;;3.67;;
40871;SDS011;26591;43.264;26.940;2023-08-31T13:25:48;5.45;;;3.90;;
40871;SDS011;26591;43.264;26.940;2023-08-31T13:28:15;4.47;;;4.00;;
40871;SDS011;26591;43.264;26.940;2023-08-31T13:30:41;8.25;;;4.43;;
40871;SDS011;26591;43.264;26.940;2023-08-31T13:33:07;4.95;;;3.60;;
40871;SDS011;26591;43.264;26.940;2023-08-31T13:35:33;4.05;;;3.45;;
40871;SDS011;26591;43.264;26.940;2023-08-31T13:37:59;5.45;;;3.45;;
40871;SDS011;26591;43.264;26.940;2023-08-31T13:40:25;7.40;;;3.15;;
40871;SDS011;26591;43.264;26.940;2023-08-31T13:42:57;5.35;;;3.38;;
40871;SDS011;26591;43.264;26.940;2023-08-31T13:45:31;5.20;;;3.30;;
40871;SDS011;26591;43.264;26.940;2023-08-31T13:47:57;4.60;;;3.58;;
40871;SDS011;26591;43.264;26.940;2023-08-31T13:50:25;5.45;;;4.50;;
40871;SDS011;26591;43.264;26.940;2023-08-31T13:52:51;4.85;;;3.88;;
40871;SDS011;26591;43.264;26.940;2023-08-31T13:55:17;6.80;;;4.65;;
40871;SDS011;26591;43.264;26.940;2023-08-31T13:57:43;6.03;;;4.60;;
40871;SDS011;26591;43.264;26.940;2023-08-31T14:00:09;8.88;;;4.60;;
40871;SDS011;26591;43.264;26.940;2023-08-31T14:02:36;6.85;;;4.93;;
40871;SDS011;26591;43.264;26.940;2023-08-31T14:05:02;11.25;;;4.65;;
40871;SDS011;26591;43.264;26.940;2023-08-31T14:07:29;5.57;;;4.20;;
40871;SDS011;26591;43.264;26.940;2023-08-31T14:09:54;6.20;;;4.88;;
40871;SDS011;26591;43.264;26.940;2023-08-31T14:12:20;6.85;;;3.95;;
40871;SDS011;26591;43.264;26.940;2023-08-31T14:14:46;6.43;;;4.28;;
40871;SDS011;26591;43.264;26.940;2023-08-31T14:17:12;5.82;;;3.90;;
40871;SDS011;26591;43.264;26.940;2023-08-31T14:19:37;6.07;;;3.80;;
40871;SDS011;26591;43.264;26.940;2023-08-31T14:22:04;7.95;;;3.75;;
40871;SDS011;26591;43.264;26.940;2023-08-31T14:24:29;5.72;;;3.83;;
40871;SDS011;26591;43.264;26.940;2023-08-31T14:26:55;6.53;;;3.70;;
40871;SDS011;26591;43.264;26.940;2023-08-31T14:29:20;6.07;;;3.30;;
40871;SDS011;26591;43.264;26.940;2023-08-31T14:31:46;5.88;;;3.53;;
40871;SDS011;26591;43.264;26.940;2023-08-31T14:34:11;8.70;;;3.50;;
40871;SDS011;26591;43.264;26.940;2023-08-31T14:36:37;4.63;;;2.97;;
40871;SDS011;26591;43.264;26.940;2023-08-31T14:39:03;5.15;;;3.10;;
40871;SDS011;26591;43.264;26.940;2023-08-31T14:41:30;5.10;;;2.95;;
40871;SDS011;26591;43.264;26.940;2023-08-31T14:43:56;5.40;;;3.50;;
40871;SDS011;26591;43.264;26.940;2023-08-31T14:46:21;6.30;;;2.80;;
40871;SDS011;26591;43.264;26.940;2023-08-31T14:48:47;7.32;;;3.78;;
40871;SDS011;26591;43.264;26.940;2023-08-31T14:51:13;4.30;;;2.78;;
40871;SDS011;26591;43.264;26.940;2023-08-31T14:53:39;5.13;;;2.80;;
40871;SDS011;26591;43.264;26.940;2023-08-31T14:56:05;6.13;;;3.08;;
40871;SDS011;26591;43.264;26.940;2023-08-31T14:58:31;8.60;;;2.88;;
40871;SDS011;26591;43.264;26.940;2023-08-31T15:00:56;5.18;;;2.85;;
40871;SDS011;26591;43.264;26.940;2023-08-31T15:03:22;6.10;;;2.92;;